Time;durP1;ratioP1;P1;durP2;ratioP2;P2;SDS_P1;SDS_P2;PMS_P1;PMS_P2;Temp;Humidity;BMP_temperature;BMP_pressure;BME280_temperature;BME280_humidity;BME280_pressure;Samples;Min_cycle;Max_cycle;Signal;HPM_P1;HPM_P2
2022/03/22 00:00:33;;;;;;;13.10;11.80;;;14.20;35.60;;;;;;5027816;28;20483;-49
2022/03/22 00:03:01;;;;;;;13.70;11.50;;;14.30;36.10;;;;;;5022396;28;20452;-49
2022/03/22 00:05:31;;;;;;;16.93;12.40;;;14.20;35.90;;;;;;5024356;28;20447;-51
2022/03/22 00:08:03;;;;;;;15.83;10.80;;;14.30;35.80;;;;;;5018621;28;20456;-47
2022/03/22 00:10:44;;;;;;;15.63;13.13;;;14.40;36.30;;;;;;5029769;28;20502;-51
2022/03/22 00:13:16;;;;;;;13.33;11.20;;;14.50;35.70;;;;;;5034070;28;20911;-51
2022/03/22 00:15:48;;;;;;;13.70;11.73;;;14.60;35.30;;;;;;5028205;28;20451;-48
2022/03/22 00:18:18;;;;;;;15.60;12.20;;;14.60;36.00;;;;;;5011086;28;20452;-51
2022/03/22 00:21:10;;;;;;;12.40;11.10;;;14.50;36.00;;;;;;5013920;28;20475;-49
2022/03/22 00:23:44;;;;;;;16.50;11.20;;;14.40;36.00;;;;;;5036998;28;20447;-50
2022/03/22 00:29:44;;;;;;;15.20;11.30;;;14.50;35.30;;;;;;5031017;28;20839;-48
2022/03/22 00:32:10;;;;;;;14.20;11.30;;;14.50;35.20;;;;;;5023142;28;20593;-48
2022/03/22 00:34:44;;;;;;;14.80;11.73;;;14.60;35.60;;;;;;5026160;28;20882;-49
2022/03/22 00:37:25;;;;;;;13.90;12.33;;;14.50;35.40;;;;;;5025231;28;20208;-52
2022/03/22 00:39:51;;;;;;;18.60;13.77;;;14.40;35.60;;;;;;5029111;28;20432;-48
2022/03/22 00:42:23;;;;;;;17.80;12.60;;;14.30;36.10;;;;;;5029906;28;20432;-50
2022/03/22 00:44:55;;;;;;;15.33;11.87;;;14.20;36.20;;;;;;5029566;28;20467;-48
2022/03/22 00:47:20;;;;;;;14.10;12.43;;;14.20;35.90;;;;;;5009295;28;20813;-50
2022/03/22 00:49:46;;;;;;;15.10;12.73;;;14.20;35.70;;;;;;5027762;28;20444;-49
2022/03/22 00:52:11;;;;;;;15.10;12.50;;;14.20;35.30;;;;;;5028134;28;20239;-47
2022/03/22 00:54:40;;;;;;;17.40;12.97;;;14.20;35.00;;;;;;5029164;28;20193;-47
2022/03/22 00:57:06;;;;;;;14.67;12.33;;;14.10;34.90;;;;;;5023458;28;20201;-51
2022/03/22 01:02:15;;;;;;;15.73;12.47;;;14.00;35.20;;;;;;5022310;28;20204;-47
2022/03/22 01:04:43;;;;;;;21.70;13.67;;;13.70;35.20;;;;;;5028825;28;20452;-49
2022/03/22 01:07:08;;;;;;;15.23;12.87;;;13.40;35.50;;;;;;5024857;28;20693;-46
2022/03/22 01:09:34;;;;;;;14.50;12.60;;;13.10;36.00;;;;;;5020307;28;20987;-46
2022/03/22 01:11:59;;;;;;;15.87;12.77;;;12.80;36.50;;;;;;5022783;28;20232;-46
2022/03/22 01:14:27;;;;;;;13.73;11.67;;;12.50;37.10;;;;;;5028047;28;20205;-49
2022/03/22 01:16:54;;;;;;;16.00;12.50;;;12.20;37.50;;;;;;5028826;28;20201;-51
2022/03/22 01:19:21;;;;;;;15.87;12.60;;;12.00;38.00;;;;;;5024676;28;20432;-48
2022/03/22 01:21:47;;;;;;;21.50;14.30;;;11.70;38.30;;;;;;5031007;28;20450;-48
2022/03/22 01:24:13;;;;;;;16.23;12.70;;;11.60;38.80;;;;;;5029312;28;20432;-50
2022/03/22 01:26:38;;;;;;;15.30;12.87;;;11.40;39.10;;;;;;5027186;28;20800;-47
2022/03/22 01:29:04;;;;;;;16.80;13.10;;;11.20;39.40;;;;;;5028674;28;20197;-48
2022/03/22 01:31:29;;;;;;;16.87;13.40;;;11.10;39.50;;;;;;5031179;28;20290;-47
2022/03/22 01:33:55;;;;;;;14.33;12.13;;;11.00;39.60;;;;;;5028163;28;20284;-49
2022/03/22 01:36:21;;;;;;;14.77;12.80;;;10.90;39.90;;;;;;5026283;28;20275;-51
2022/03/22 01:38:47;;;;;;;19.33;13.80;;;10.70;40.30;;;;;;5029387;28;20274;-47
2022/03/22 01:41:13;;;;;;;18.00;12.53;;;10.60;40.70;;;;;;5028230;28;20523;-47
2022/03/22 01:43:39;;;;;;;17.60;13.20;;;10.50;40.90;;;;;;5024032;28;20200;-50
2022/03/22 01:46:05;;;;;;;15.10;12.30;;;10.50;40.90;;;;;;5021710;28;20436;-52
2022/03/22 01:48:31;;;;;;;13.93;11.70;;;10.50;41.00;;;;;;5032931;28;20200;-48
2022/03/22 01:50:57;;;;;;;19.50;12.20;;;10.40;41.10;;;;;;5029573;28;20225;-48
2022/03/22 01:53:22;;;;;;;16.87;12.70;;;10.20;41.60;;;;;;5029320;28;20527;-48
2022/03/22 01:55:48;;;;;;;15.97;12.67;;;10.10;41.70;;;;;;5021565;28;20231;-51
2022/03/22 01:58:14;;;;;;;15.50;12.57;;;10.00;42.10;;;;;;5022321;28;20205;-47
2022/03/22 02:00:40;;;;;;;17.50;11.93;;;9.80;43.20;;;;;;5029332;28;20244;-47
2022/03/22 02:05:52;;;;;;;14.80;11.70;;;9.70;43.50;;;;;;5028669;28;20498;-46
2022/03/22 02:08:20;;;;;;;15.50;12.73;;;9.50;43.80;;;;;;5025943;28;20455;-52
2022/03/22 02:10:46;;;;;;;14.10;11.97;;;9.50;43.80;;;;;;5025844;28;20488;-46
2022/03/22 02:13:12;;;;;;;16.30;12.73;;;9.40;43.80;;;;;;5029739;28;20490;-49
2022/03/22 02:15:38;;;;;;;16.40;12.93;;;9.30;44.20;;;;;;5032160;28;20492;-48
2022/03/22 02:18:04;;;;;;;15.33;12.43;;;9.10;44.40;;;;;;5023755;28;20479;-46
2022/03/22 02:20:30;;;;;;;18.63;13.30;;;9.00;44.80;;;;;;5030099;28;20250;-52
2022/03/22 02:23:08;;;;;;;14.90;10.93;;;9.00;44.80;;;;;;5027787;28;20204;-46
2022/03/22 02:25:35;;;;;;;18.07;11.00;;;8.90;45.00;;;;;;5027006;28;20185;-47
2022/03/22 02:28:02;;;;;;;17.93;12.97;;;8.70;45.40;;;;;;5030892;28;20546;-47
2022/03/22 02:30:28;;;;;;;15.67;13.17;;;8.70;45.60;;;;;;5027862;28;20487;-46
2022/03/22 02:32:55;;;;;;;15.90;13.10;;;8.50;46.10;;;;;;5028407;28;20445;-48
2022/03/22 02:35:23;;;;;;;15.50;12.40;;;8.60;46.10;;;;;;5024885;28;20664;-49
2022/03/22 02:37:50;;;;;;;16.00;12.83;;;8.60;46.00;;;;;;5025617;28;20436;-52
2022/03/22 02:40:17;;;;;;;15.00;12.20;;;7.80;47.80;;;;;;5027392;28;21715;-47
2022/03/22 02:42:54;;;;;;;18.40;12.50;;;7.90;48.30;;;;;;5025054;28;20447;-50
2022/03/22 02:45:20;;;;;;;16.23;12.80;;;7.90;47.80;;;;;;5021450;28;20988;-48
2022/03/22 02:47:46;;;;;;;16.83;12.90;;;8.10;47.40;;;;;;5030382;28;20451;-49
2022/03/22 02:50:12;;;;;;;20.77;12.60;;;8.10;47.30;;;;;;5024161;28;20440;-51
2022/03/22 02:52:39;;;;;;;14.57;12.27;;;8.20;47.00;;;;;;5022841;28;20567;-46
2022/03/22 02:55:06;;;;;;;16.20;12.27;;;8.50;46.40;;;;;;5021634;28;20806;-49
2022/03/22 02:57:34;;;;;;;17.97;13.10;;;8.30;46.40;;;;;;5029694;28;20489;-51
2022/03/22 03:00:00;;;;;;;14.73;12.40;;;8.30;46.40;;;;;;5027517;28;20852;-46
2022/03/22 03:02:25;;;;;;;17.03;12.73;;;8.30;46.50;;;;;;5029105;28;21115;-52
2022/03/22 03:04:51;;;;;;;17.87;12.30;;;8.30;46.40;;;;;;5031972;28;20515;-50
2022/03/22 03:07:16;;;;;;;17.43;12.77;;;8.40;46.40;;;;;;5022118;28;20193;-50
2022/03/22 03:09:42;;;;;;;14.30;12.10;;;8.40;46.30;;;;;;5020718;28;20243;-49
2022/03/22 03:12:08;;;;;;;16.00;13.13;;;8.30;46.30;;;;;;5028738;28;20228;-46
2022/03/22 03:14:40;;;;;;;16.53;12.23;;;8.50;46.00;;;;;;5024304;28;20200;-50
2022/03/22 03:17:06;;;;;;;16.77;12.93;;;8.60;45.80;;;;;;5021535;28;20444;-46
2022/03/22 03:19:32;;;;;;;16.03;12.30;;;8.60;45.60;;;;;;5029810;28;20436;-49
2022/03/22 03:21:58;;;;;;;15.10;11.90;;;8.70;45.60;;;;;;5025809;28;20436;-49
2022/03/22 03:24:24;;;;;;;18.20;12.23;;;8.70;45.30;;;;;;5027016;28;20200;-47
2022/03/22 03:26:49;;;;;;;15.97;11.70;;;8.80;45.20;;;;;;5022352;28;20443;-48
2022/03/22 03:29:15;;;;;;;17.73;12.10;;;8.80;44.90;;;;;;5028772;28;20946;-49
2022/03/22 03:31:41;;;;;;;16.80;12.53;;;8.80;44.70;;;;;;5028018;28;20683;-48
2022/03/22 03:34:06;;;;;;;16.70;12.70;;;8.80;44.90;;;;;;5027919;28;20260;-49
2022/03/22 03:36:32;;;;;;;17.60;13.07;;;8.70;44.90;;;;;;5031992;28;20255;-43
2022/03/22 03:38:59;;;;;;;17.90;13.30;;;8.60;45.10;;;;;;5029977;28;20204;-45
2022/03/22 03:47:11;;;;;;;13.80;11.83;;;8.40;45.90;;;;;;5030534;28;20439;-46
2022/03/22 03:49:37;;;;;;;16.90;12.43;;;8.40;45.80;;;;;;5037658;28;20443;-48
2022/03/22 03:52:05;;;;;;;15.70;12.70;;;7.90;46.50;;;;;;5031946;28;20479;-44
2022/03/22 03:54:31;;;;;;;17.73;12.13;;;7.70;47.40;;;;;;5043855;28;20442;-48
2022/03/22 03:56:57;;;;;;;17.23;12.30;;;7.70;47.60;;;;;;5037060;28;20505;-46
2022/03/22 03:59:22;;;;;;;14.57;12.30;;;7.60;47.60;;;;;;5035951;28;20204;-44
2022/03/22 04:01:48;;;;;;;15.70;11.97;;;7.50;48.00;;;;;;5031085;28;20193;-47
2022/03/22 04:04:14;;;;;;;18.10;12.80;;;7.50;48.00;;;;;;5030486;28;20545;-49
2022/03/22 04:06:39;;;;;;;15.50;12.13;;;7.40;48.20;;;;;;5032602;28;20185;-46
2022/03/22 04:09:05;;;;;;;18.00;12.40;;;7.30;48.40;;;;;;5011224;28;20723;-45
2022/03/22 04:11:30;;;;;;;15.00;11.17;;;7.60;48.20;;;;;;5036520;28;20286;-46
2022/03/22 04:13:56;;;;;;;15.93;12.10;;;7.70;47.80;;;;;;5038682;28;20205;-44
2022/03/22 04:16:21;;;;;;;14.40;11.60;;;7.80;47.60;;;;;;5032753;28;20276;-48
2022/03/22 04:18:47;;;;;;;16.33;12.33;;;7.80;47.40;;;;;;5031279;28;20185;-48
2022/03/22 04:21:12;;;;;;;20.40;12.30;;;7.90;47.20;;;;;;5034681;28;20193;-44
2022/03/22 04:23:38;;;;;;;16.30;12.73;;;7.90;47.00;;;;;;5033755;28;20239;-44
2022/03/22 04:26:04;;;;;;;17.20;12.90;;;7.90;47.00;;;;;;5032808;28;20587;-45
2022/03/22 04:33:58;;;;;;;20.50;12.20;;;7.50;48.00;;;;;;5026641;28;20474;-46
2022/03/22 04:36:23;;;;;;;15.17;11.53;;;7.50;48.00;;;;;;5029351;28;20811;-49
2022/03/22 04:38:49;;;;;;;15.10;11.53;;;7.60;47.90;;;;;;5029714;28;20217;-47
2022/03/22 04:41:15;;;;;;;17.80;11.73;;;7.70;47.50;;;;;;5028818;28;20546;-44
2022/03/22 04:43:40;;;;;;;14.90;11.77;;;7.80;47.10;;;;;;5034355;28;20445;-44
2022/03/22 04:46:07;;;;;;;17.27;12.43;;;7.80;46.70;;;;;;5030837;28;20200;-44
2022/03/22 04:48:33;;;;;;;22.50;13.83;;;7.90;46.50;;;;;;5030518;28;20564;-45
2022/03/22 04:56:48;;;;;;;15.00;12.23;;;8.00;46.00;;;;;;5031991;28;20439;-44
2022/03/22 04:59:15;;;;;;;17.00;12.60;;;8.00;46.00;;;;;;5027245;28;20443;-45
2022/03/22 05:01:42;;;;;;;19.30;11.40;;;8.10;46.10;;;;;;5031236;28;20474;-46
2022/03/22 05:04:09;;;;;;;21.93;12.50;;;8.10;46.10;;;;;;5031752;28;20436;-48
2022/03/22 05:06:35;;;;;;;15.37;11.83;;;8.00;46.00;;;;;;5029346;28;20456;-44
2022/03/22 05:09:02;;;;;;;16.53;12.27;;;7.90;46.50;;;;;;5022127;28;20454;-48
2022/03/22 05:11:27;;;;;;;15.47;12.43;;;7.80;46.50;;;;;;5016838;28;20492;-48
2022/03/22 05:13:56;;;;;;;16.60;12.23;;;7.60;46.90;;;;;;5028579;28;20498;-44
2022/03/22 05:16:22;;;;;;;17.07;12.70;;;7.40;47.70;;;;;;5031094;28;20193;-47
2022/03/22 05:18:48;;;;;;;19.57;12.83;;;7.50;47.60;;;;;;5030786;28;20443;-45
2022/03/22 05:21:13;;;;;;;14.03;12.00;;;7.50;47.60;;;;;;5029715;28;20205;-46
2022/03/22 05:23:39;;;;;;;18.27;12.47;;;7.50;47.40;;;;;;5026959;28;20428;-50
2022/03/22 05:26:05;;;;;;;15.40;12.27;;;7.60;47.40;;;;;;5029812;28;20284;-44
2022/03/22 05:28:32;;;;;;;16.07;10.97;;;7.60;47.20;;;;;;5036233;28;20441;-45
2022/03/22 05:30:58;;;;;;;15.80;11.67;;;7.70;47.00;;;;;;5030262;28;20831;-47
2022/03/22 05:33:23;;;;;;;16.27;12.47;;;7.80;46.80;;;;;;5029333;28;20443;-46
2022/03/22 05:35:49;;;;;;;19.10;13.90;;;7.90;46.50;;;;;;5030362;28;21097;-45
2022/03/22 05:38:15;;;;;;;21.57;14.40;;;7.90;45.90;;;;;;5027153;28;20197;-49
2022/03/22 05:40:41;;;;;;;20.13;14.17;;;7.90;45.70;;;;;;5026426;28;20577;-51
2022/03/22 05:43:07;;;;;;;19.80;12.77;;;8.00;45.70;;;;;;5028906;28;20444;-50
2022/03/22 05:45:33;;;;;;;17.87;13.67;;;8.00;45.70;;;;;;5024831;28;20203;-47
2022/03/22 05:48:00;;;;;;;15.87;13.20;;;8.00;45.40;;;;;;5029200;28;20559;-44
2022/03/22 05:50:26;;;;;;;15.97;13.10;;;8.00;45.70;;;;;;5028237;28;20486;-48
2022/03/22 05:52:52;;;;;;;17.73;11.87;;;8.10;45.90;;;;;;5030826;28;20973;-44
2022/03/22 05:55:17;;;;;;;15.67;11.90;;;7.90;46.10;;;;;;5022781;28;20502;-44
2022/03/22 05:57:43;;;;;;;18.70;13.40;;;7.90;46.40;;;;;;5023137;28;21266;-47
2022/03/22 06:00:10;;;;;;;17.17;13.17;;;7.90;46.50;;;;;;5025954;28;20228;-44
2022/03/22 06:02:37;;;;;;;18.90;13.37;;;7.90;46.60;;;;;;5026538;28;20959;-46
2022/03/22 06:05:05;;;;;;;18.60;11.90;;;7.90;46.80;;;;;;5029544;28;20440;-47
2022/03/22 06:07:31;;;;;;;20.97;13.50;;;7.70;47.10;;;;;;5028523;28;20874;-47
2022/03/22 06:09:57;;;;;;;19.83;12.20;;;7.80;47.20;;;;;;5030724;28;20471;-46
2022/03/22 06:12:22;;;;;;;15.23;12.73;;;7.90;47.00;;;;;;5035956;28;20236;-44
2022/03/22 06:15:14;;;;;;;16.90;12.50;;;7.90;47.00;;;;;;5028614;28;20460;-44
2022/03/22 06:17:33;;;;;;;16.53;12.30;;;8.00;47.20;;;;;;5025511;28;20201;-44
2022/03/22 06:19:59;;;;;;;17.77;13.43;;;8.20;49.00;;;;;;5036991;28;20439;-46
2022/03/22 06:22:24;;;;;;;16.40;12.30;;;8.60;49.90;;;;;;5029439;28;20225;-46
2022/03/22 06:24:50;;;;;;;18.53;11.90;;;8.90;48.60;;;;;;5027999;28;20193;-47
2022/03/22 06:27:17;;;;;;;14.03;11.10;;;9.30;47.90;;;;;;5029654;28;20284;-44
2022/03/22 06:29:43;;;;;;;17.03;12.73;;;9.50;46.90;;;;;;5026318;28;20680;-46
2022/03/22 06:32:11;;;;;;;18.93;13.90;;;9.60;45.10;;;;;;5023379;28;20530;-49
2022/03/22 06:34:37;;;;;;;18.93;13.37;;;9.70;45.10;;;;;;5024139;28;20198;-46
2022/03/22 06:37:03;;;;;;;15.00;12.37;;;9.80;45.20;;;;;;5024745;28;20562;-48
2022/03/22 06:39:29;;;;;;;19.50;12.50;;;10.10;43.70;;;;;;5029508;28;20747;-48
2022/03/22 06:41:55;;;;;;;19.50;13.60;;;10.40;42.70;;;;;;5021668;28;20519;-44
2022/03/22 06:44:20;;;;;;;14.97;13.23;;;10.40;42.50;;;;;;5029491;28;20654;-48
2022/03/22 06:46:46;;;;;;;18.40;12.33;;;10.20;41.80;;;;;;5029363;28;20193;-44
2022/03/22 06:49:12;;;;;;;19.00;13.17;;;10.20;42.60;;;;;;5029256;28;20197;-44
2022/03/22 06:51:38;;;;;;;17.10;13.20;;;9.90;43.20;;;;;;5029366;28;20596;-44
2022/03/22 06:54:03;;;;;;;15.37;12.83;;;10.10;43.20;;;;;;5041120;28;20450;-44
2022/03/22 06:56:29;;;;;;;15.53;13.83;;;10.50;42.60;;;;;;5028444;28;20559;-44
2022/03/22 06:58:54;;;;;;;16.93;13.23;;;10.40;42.20;;;;;;5029209;28;20201;-44
2022/03/22 07:01:20;;;;;;;15.83;13.50;;;10.70;42.30;;;;;;5029331;28;20310;-44
2022/03/22 07:03:46;;;;;;;17.63;13.47;;;11.20;41.90;;;;;;5028582;28;20607;-48
2022/03/22 07:06:12;;;;;;;17.60;13.60;;;11.60;40.90;;;;;;5032513;28;20189;-47
2022/03/22 07:08:38;;;;;;;15.47;13.27;;;12.00;40.30;;;;;;5028380;28;20216;-45
2022/03/22 07:13:49;;;;;;;16.17;12.83;;;12.40;38.60;;;;;;5028248;28;20322;-45
2022/03/22 07:16:15;;;;;;;19.23;13.73;;;12.70;38.20;;;;;;5028926;28;20511;-44
2022/03/22 07:18:40;;;;;;;18.73;14.00;;;12.90;38.00;;;;;;5029714;28;20530;-45
2022/03/22 07:21:06;;;;;;;18.70;14.40;;;13.10;37.80;;;;;;5029769;28;20917;-48
2022/03/22 07:23:31;;;;;;;16.83;13.70;;;13.40;37.30;;;;;;5028034;28;20204;-50
2022/03/22 07:25:57;;;;;;;16.57;14.40;;;13.60;36.90;;;;;;5028973;28;20193;-46
2022/03/22 07:28:22;;;;;;;19.43;15.27;;;13.70;36.50;;;;;;5029049;28;20200;-47
2022/03/22 07:30:48;;;;;;;17.73;15.87;;;13.90;36.10;;;;;;5027102;28;20700;-46
2022/03/22 07:33:14;;;;;;;21.03;14.33;;;14.10;36.00;;;;;;5023717;28;21421;-46
2022/03/22 07:35:40;;;;;;;19.30;13.90;;;14.20;35.70;;;;;;5028195;28;20193;-49
2022/03/22 07:38:06;;;;;;;24.27;14.90;;;14.30;35.30;;;;;;5026720;28;20660;-48
2022/03/22 07:40:31;;;;;;;16.23;13.80;;;14.50;35.30;;;;;;5027017;28;20431;-48
2022/03/22 07:42:57;;;;;;;18.57;14.20;;;14.60;35.00;;;;;;5036569;28;20276;-48
2022/03/22 07:45:23;;;;;;;20.77;14.30;;;14.80;35.20;;;;;;5028979;28;20212;-49
2022/03/22 07:47:48;;;;;;;15.10;13.50;;;14.90;34.80;;;;;;5027352;28;20657;-46
2022/03/22 07:53:01;;;;;;;19.97;14.60;;;15.20;34.80;;;;;;5028172;28;20204;-48
2022/03/22 07:55:28;;;;;;;15.40;12.37;;;15.40;34.70;;;;;;5023496;28;21093;-46
2022/03/22 07:57:54;;;;;;;16.10;13.93;;;15.50;34.10;;;;;;5028223;28;20523;-48
2022/03/22 08:00:20;;;;;;;18.17;15.20;;;15.60;33.90;;;;;;5024027;28;20829;-49
2022/03/22 08:02:54;;;;;;;14.87;13.37;;;15.70;33.90;;;;;;5036204;28;20467;-47
2022/03/22 08:05:20;;;;;;;14.53;12.40;;;15.80;33.90;;;;;;5027880;28;20464;-47
2022/03/22 08:07:45;;;;;;;17.10;13.63;;;15.80;33.90;;;;;;5026982;28;20527;-45
2022/03/22 08:10:11;;;;;;;15.30;13.70;;;15.90;33.50;;;;;;5023698;28;20975;-45
2022/03/22 08:12:37;;;;;;;14.60;13.10;;;16.00;33.10;;;;;;5028142;28;20225;-47
2022/03/22 08:15:03;;;;;;;14.50;13.00;;;16.00;33.40;;;;;;5029014;28;20209;-52
2022/03/22 08:17:28;;;;;;;16.13;13.40;;;15.90;32.40;;;;;;5037539;28;20229;-49
2022/03/22 08:19:54;;;;;;;19.53;12.43;;;15.80;32.60;;;;;;5027937;28;20467;-46
2022/03/22 08:22:19;;;;;;;15.10;12.30;;;15.30;31.60;;;;;;5030990;28;20194;-46
2022/03/22 08:24:45;;;;;;;14.50;12.37;;;14.80;32.90;;;;;;5032135;28;20197;-45
2022/03/22 08:27:11;;;;;;;14.53;12.77;;;15.00;33.70;;;;;;5032576;28;20612;-45
2022/03/22 08:29:36;;;;;;;14.53;12.37;;;15.30;33.40;;;;;;5027952;28;20189;-48
2022/03/22 08:32:02;;;;;;;17.70;12.40;;;15.40;32.80;;;;;;5032116;28;20235;-48
2022/03/22 08:34:28;;;;;;;13.73;11.53;;;15.30;32.30;;;;;;5030839;28;20431;-47
2022/03/22 08:36:54;;;;;;;12.90;11.60;;;15.00;32.20;;;;;;5028846;28;20199;-46
2022/03/22 08:39:20;;;;;;;15.53;11.60;;;15.40;32.30;;;;;;5033531;28;20201;-46
2022/03/22 08:41:45;;;;;;;11.70;9.83;;;15.60;32.40;;;;;;5033867;28;20213;-47
2022/03/22 08:44:11;;;;;;;13.63;10.97;;;15.90;32.30;;;;;;5029677;28;20194;-45
2022/03/22 08:46:37;;;;;;;12.80;9.60;;;16.10;31.60;;;;;;5031478;28;20233;-46
2022/03/22 08:49:04;;;;;;;16.30;11.60;;;16.30;31.50;;;;;;5031479;28;20193;-45
2022/03/22 08:51:30;;;;;;;12.20;11.00;;;16.50;31.30;;;;;;5031468;28;20309;-46
2022/03/22 08:53:56;;;;;;;13.00;11.40;;;16.60;29.90;;;;;;5031814;28;20539;-49
2022/03/22 08:56:24;;;;;;;13.30;11.20;;;16.80;29.80;;;;;;5027869;28;20304;-45
2022/03/22 08:58:53;;;;;;;12.50;11.20;;;16.80;30.20;;;;;;5032852;28;20195;-49
2022/03/22 09:01:27;;;;;;;12.10;10.80;;;16.70;29.60;;;;;;5030077;28;20567;-46
2022/03/22 09:06:38;;;;;;;16.07;12.90;;;16.80;29.80;;;;;;5030139;28;20438;-48
2022/03/22 09:09:05;;;;;;;13.20;11.77;;;16.80;29.40;;;;;;5031010;28;20442;-46
2022/03/22 09:11:30;;;;;;;15.80;11.73;;;16.20;29.60;;;;;;5029706;28;20550;-44
2022/03/22 09:13:56;;;;;;;16.57;11.83;;;16.50;29.90;;;;;;5030442;28;20505;-47
2022/03/22 09:16:22;;;;;;;14.70;11.70;;;16.80;29.90;;;;;;5026945;28;20533;-46
2022/03/22 09:18:48;;;;;;;13.90;12.40;;;16.80;29.90;;;;;;5030877;28;20190;-49
2022/03/22 09:21:16;;;;;;;13.50;11.43;;;17.00;29.60;;;;;;5030321;28;20197;-46
2022/03/22 09:23:42;;;;;;;14.63;12.40;;;17.30;29.00;;;;;;5036776;28;20491;-48
2022/03/22 09:26:08;;;;;;;13.33;12.00;;;17.30;29.20;;;;;;5027792;28;20459;-48
2022/03/22 09:28:34;;;;;;;13.50;11.93;;;17.30;29.40;;;;;;5036072;28;20533;-47
2022/03/22 09:31:00;;;;;;;16.30;11.90;;;17.30;29.50;;;;;;5033215;28;20496;-49
2022/03/22 09:33:25;;;;;;;22.90;12.37;;;17.50;29.50;;;;;;5024314;28;20303;-49
2022/03/22 09:35:53;;;;;;;13.43;11.83;;;17.60;29.40;;;;;;5030966;28;20471;-45
2022/03/22 09:38:19;;;;;;;15.00;12.77;;;18.00;29.00;;;;;;5030214;28;20194;-45
2022/03/22 09:40:45;;;;;;;17.13;13.00;;;18.30;29.30;;;;;;5031497;28;20446;-45
2022/03/22 09:43:11;;;;;;;14.43;12.90;;;18.30;29.00;;;;;;5028387;28;20208;-46
2022/03/22 09:45:38;;;;;;;14.80;13.30;;;18.30;28.60;;;;;;5020900;28;20200;-50
2022/03/22 09:48:04;;;;;;;16.73;13.67;;;18.50;28.70;;;;;;5027593;28;20812;-46
2022/03/22 09:53:15;;;;;;;17.03;15.30;;;18.30;29.00;;;;;;5027077;28;20442;-46
2022/03/22 09:55:41;;;;;;;15.20;13.27;;;18.80;28.80;;;;;;5028382;28;20447;-49
2022/03/22 09:58:07;;;;;;;15.80;13.90;;;18.80;28.10;;;;;;5022268;28;20793;-48
2022/03/22 10:00:33;;;;;;;15.63;13.43;;;18.60;27.90;;;;;;5025862;28;20248;-48
2022/03/22 10:02:59;;;;;;;15.57;14.00;;;18.90;28.00;;;;;;5022724;28;20436;-46
2022/03/22 10:05:26;;;;;;;15.13;13.57;;;19.30;27.80;;;;;;5026629;28;20223;-45
2022/03/22 10:08:18;;;;;;;15.93;14.07;;;19.50;28.00;;;;;;5028086;28;20448;-44
2022/03/22 10:10:58;;;;;;;17.80;15.10;;;19.90;27.90;;;;;;5024633;28;20432;-45
2022/03/22 10:13:24;;;;;;;17.03;12.50;;;20.10;27.70;;;;;;5027186;28;20459;-45
2022/03/22 10:15:59;;;;;;;15.83;14.23;;;20.30;27.20;;;;;;5026796;28;20428;-48
2022/03/22 10:18:25;;;;;;;19.07;16.10;;;20.50;26.60;;;;;;5022443;28;20820;-45
2022/03/22 10:20:59;;;;;;;15.43;13.57;;;20.70;26.70;;;;;;5028868;28;20431;-44
2022/03/22 10:23:24;;;;;;;15.83;14.23;;;20.90;27.70;;;;;;5026800;28;20197;-48
2022/03/22 10:26:04;;;;;;;17.30;14.53;;;21.10;27.20;;;;;;5019170;28;20490;-49
2022/03/22 10:28:31;;;;;;;16.70;15.00;;;21.30;26.90;;;;;;5026473;28;20653;-47
2022/03/22 10:30:57;;;;;;;17.37;15.57;;;21.20;26.00;;;;;;5028754;28;21048;-47
2022/03/22 10:33:23;;;;;;;17.87;15.97;;;21.30;25.50;;;;;;5025448;28;20444;-45
2022/03/22 10:35:49;;;;;;;17.43;15.50;;;21.30;25.60;;;;;;5020926;28;20781;-50
2022/03/22 10:38:18;;;;;;;16.50;14.80;;;21.60;25.90;;;;;;5029114;28;20437;-44
2022/03/22 10:40:45;;;;;;;16.53;14.83;;;21.70;25.10;;;;;;5028710;28;20515;-50
2022/03/22 10:43:11;;;;;;;17.67;15.30;;;21.90;25.30;;;;;;5024192;28;20448;-49
2022/03/22 10:45:43;;;;;;;18.03;15.50;;;22.00;25.50;;;;;;5023740;28;20432;-45
2022/03/22 10:48:08;;;;;;;17.47;15.77;;;21.30;24.70;;;;;;5026914;28;20459;-47
2022/03/22 10:50:38;;;;;;;18.80;16.80;;;21.40;25.40;;;;;;5023034;28;20802;-47
2022/03/22 10:53:04;;;;;;;17.80;15.97;;;21.60;25.30;;;;;;5025242;28;20217;-47
2022/03/22 10:55:30;;;;;;;23.03;16.20;;;21.70;25.00;;;;;;5023232;28;20479;-45
2022/03/22 10:58:00;;;;;;;17.60;15.80;;;21.80;25.30;;;;;;5026114;28;20847;-47
2022/03/22 11:00:26;;;;;;;18.43;15.70;;;22.00;25.20;;;;;;5024682;28;20230;-46
2022/03/22 11:02:55;;;;;;;17.93;16.23;;;22.20;25.50;;;;;;5028534;28;20519;-48
2022/03/22 11:05:23;;;;;;;18.07;15.87;;;22.60;25.00;;;;;;5027889;28;20523;-49
2022/03/22 11:07:50;;;;;;;18.33;16.23;;;22.80;24.70;;;;;;5027060;28;20911;-47
2022/03/22 11:10:30;;;;;;;18.63;16.50;;;22.80;24.60;;;;;;5030130;28;20443;-46
2022/03/22 11:13:00;;;;;;;17.30;15.57;;;22.90;24.30;;;;;;5035639;28;20501;-51
2022/03/22 11:15:35;;;;;;;17.70;15.30;;;23.00;24.00;;;;;;5026201;28;20475;-47
2022/03/22 11:18:02;;;;;;;21.40;17.00;;;23.00;24.00;;;;;;5025313;28;20434;-45
2022/03/22 11:20:28;;;;;;;17.40;15.50;;;22.50;23.60;;;;;;5026900;28;20458;-46
2022/03/22 11:22:57;;;;;;;16.43;14.80;;;22.70;24.20;;;;;;5027000;28;20428;-49
2022/03/22 11:25:35;;;;;;;17.60;15.80;;;23.00;25.00;;;;;;5026891;28;20570;-50
2022/03/22 11:28:06;;;;;;;16.50;14.23;;;23.10;24.40;;;;;;5028203;28;20947;-50
2022/03/22 11:30:33;;;;;;;16.13;14.63;;;23.10;25.00;;;;;;5023429;28;20440;-51
2022/03/22 11:35:50;;;;;;;17.33;15.10;;;23.70;26.80;;;;;;5020253;28;21285;-45
2022/03/22 11:38:48;;;;;;;15.00;13.50;;;23.80;24.70;;;;;;5025689;28;20443;-46
2022/03/22 11:44:21;;;;;;;15.17;13.77;;;24.30;24.90;;;;;;5027829;28;20435;-45
2022/03/22 11:47:00;;;;;;;19.10;17.03;;;24.60;25.50;;;;;;5036079;28;20431;-46
2022/03/22 11:49:26;;;;;;;19.90;15.80;;;24.70;24.50;;;;;;5034359;28;20435;-45
2022/03/22 11:51:57;;;;;;;16.93;15.17;;;24.70;23.90;;;;;;5027440;28;20557;-49
2022/03/22 11:54:25;;;;;;;16.93;15.20;;;24.80;24.20;;;;;;5027208;28;20443;-44
2022/03/22 11:56:55;;;;;;;14.13;12.83;;;24.80;24.00;;;;;;5033344;28;20764;-49
2022/03/22 11:59:22;;;;;;;14.70;13.20;;;24.90;25.10;;;;;;5032344;28;20436;-44
2022/03/22 12:02:03;;;;;;;16.10;14.43;;;25.10;24.90;;;;;;5032637;28;20431;-48
2022/03/22 12:04:55;;;;;;;16.07;14.47;;;25.50;23.90;;;;;;5024333;28;21034;-45
2022/03/22 12:07:23;;;;;;;18.10;16.30;;;25.80;23.20;;;;;;5025646;28;20462;-47
2022/03/22 12:09:49;;;;;;;18.90;17.10;;;25.80;22.80;;;;;;5032198;28;20436;-50
2022/03/22 12:12:16;;;;;;;16.33;14.73;;;25.70;23.10;;;;;;5032759;28;20517;-50
2022/03/22 12:14:48;;;;;;;15.27;13.73;;;25.80;23.50;;;;;;5029366;28;20440;-46
2022/03/22 12:17:15;;;;;;;14.90;13.50;;;25.90;23.60;;;;;;5030130;28;20470;-50
2022/03/22 12:19:41;;;;;;;17.40;15.60;;;26.00;24.10;;;;;;5032941;28;20431;-49
2022/03/22 12:22:08;;;;;;;18.63;16.73;;;26.30;24.00;;;;;;5031869;28;20463;-49
2022/03/22 12:24:35;;;;;;;16.97;15.17;;;26.50;23.10;;;;;;5030936;28;20454;-46
2022/03/22 12:27:08;;;;;;;15.30;13.80;;;26.70;23.10;;;;;;5040195;28;21120;-50
2022/03/22 12:29:41;;;;;;;17.30;15.50;;;26.80;23.50;;;;;;5026543;28;20481;-50
2022/03/22 12:32:20;;;;;;;16.90;14.93;;;26.80;22.30;;;;;;5031275;28;20487;-49
2022/03/22 12:34:47;;;;;;;16.83;15.23;;;26.50;21.50;;;;;;5029892;28;20522;-46
2022/03/22 12:37:14;;;;;;;18.63;16.80;;;25.90;23.60;;;;;;5028332;28;21042;-47
2022/03/22 12:39:42;;;;;;;19.20;14.97;;;25.90;22.30;;;;;;5032639;28;20946;-45
2022/03/22 12:42:09;;;;;;;18.93;15.90;;;25.90;22.80;;;;;;5034255;28;20440;-51
2022/03/22 12:44:35;;;;;;;17.57;15.77;;;26.10;22.50;;;;;;5028385;28;20428;-49
2022/03/22 12:47:04;;;;;;;17.70;15.77;;;26.20;23.10;;;;;;5031846;28;21353;-50
2022/03/22 12:49:30;;;;;;;17.00;15.20;;;26.40;23.30;;;;;;5036407;28;20848;-49
2022/03/22 12:51:56;;;;;;;18.73;16.47;;;26.50;23.90;;;;;;5022524;28;20520;-49
2022/03/22 12:54:52;;;;;;;18.50;15.70;;;26.60;22.60;;;;;;5027517;28;20255;-50
2022/03/22 12:57:51;;;;;;;;;;;;;;;;;;;;;
2022/03/22 13:00:34;;;;;;;19.50;17.50;;;26.70;22.80;;;;;;5026518;28;20472;-46
2022/03/22 13:04:11;;;;;;;18.67;16.77;;;26.90;22.40;;;;;;5023992;28;20494;-50
2022/03/22 13:06:50;;;;;;;14.27;12.87;;;26.90;22.90;;;;;;4999248;28;21341;-52
2022/03/22 13:12:35;;;;;;;15.83;14.23;;;27.30;23.30;;;;;;5044179;28;20529;-50
2022/03/22 13:15:09;;;;;;;18.70;16.90;;;27.40;23.00;;;;;;5033508;28;20444;-48
2022/03/22 13:17:42;;;;;;;17.17;15.47;;;27.60;22.90;;;;;;5033578;28;20455;-48
2022/03/22 13:20:17;;;;;;;14.50;12.73;;;27.60;22.20;;;;;;5035827;28;20501;-50